createdAt,value
2018-03-02T00:01:08.556Z,3.11
2018-03-02T00:03:37.136Z,3.04
2018-03-02T00:06:05.821Z,3.08
2018-03-02T00:08:34.502Z,3.10
2018-03-02T00:11:03.193Z,2.76
2018-03-02T00:13:31.829Z,2.75
2018-03-02T00:16:01.551Z,2.80
2018-03-02T00:18:30.273Z,2.85
2018-03-02T00:20:58.958Z,2.02
2018-03-02T00:23:27.649Z,2.38
2018-03-02T00:25:56.214Z,2.33
2018-03-02T00:28:24.917Z,2.24
2018-03-02T00:30:53.591Z,2.22
2018-03-02T00:33:22.145Z,2.37
2018-03-02T00:35:50.864Z,1.82
2018-03-02T00:38:19.660Z,1.90
2018-03-02T00:40:48.236Z,1.96
2018-03-02T00:43:16.922Z,2.06
2018-03-02T00:45:45.805Z,2.38
2018-03-02T00:48:14.504Z,2.36
2018-03-02T00:50:43.148Z,2.12
2018-03-02T00:53:11.875Z,1.89
2018-03-02T00:55:40.662Z,2.06
2018-03-02T00:58:10.128Z,1.99
2018-03-02T01:00:38.806Z,2.31
2018-03-02T01:03:07.501Z,2.20
2018-03-02T01:05:36.186Z,1.99
2018-03-02T01:08:05.278Z,1.93
2018-03-02T01:10:33.912Z,1.77
2018-03-02T01:13:03.363Z,1.44
2018-03-02T01:15:32.356Z,1.57
2018-03-02T01:18:00.944Z,1.69
2018-03-02T01:20:29.728Z,1.73
2018-03-02T01:22:58.523Z,1.79
2018-03-02T01:25:27.209Z,1.40
2018-03-02T01:27:55.833Z,1.82
2018-03-02T01:30:25.296Z,1.88
2018-03-02T01:32:53.946Z,1.84
2018-03-02T01:35:22.666Z,2.03
2018-03-02T01:37:51.560Z,1.84
2018-03-02T01:40:20.247Z,1.88
2018-03-02T01:42:49.031Z,1.49
2018-03-02T01:45:17.924Z,1.73
2018-03-02T01:47:46.710Z,2.09
2018-03-02T01:50:15.396Z,1.99
2018-03-02T01:52:44.080Z,2.20
2018-03-02T01:55:12.830Z,2.01
2018-03-02T01:57:41.454Z,1.84
2018-03-02T02:00:10.238Z,1.64
2018-03-02T02:02:38.924Z,1.85
2018-03-02T02:05:07.575Z,2.08
2018-03-02T02:07:37.411Z,2.85
2018-03-02T02:10:06.113Z,3.18
2018-03-02T02:12:34.796Z,3.12
2018-03-02T02:15:03.584Z,2.81
2018-03-02T02:17:32.156Z,2.38
2018-03-02T02:20:00.855Z,2.29
2018-03-02T02:22:29.640Z,2.74
2018-03-02T02:24:58.352Z,3.11
2018-03-02T02:27:26.903Z,2.55
2018-03-02T02:29:55.951Z,2.78
2018-03-02T02:32:25.414Z,2.01
2018-03-02T02:34:54.036Z,2.44
2018-03-02T02:37:23.599Z,2.44
2018-03-02T02:39:52.284Z,1.92
2018-03-02T02:42:20.915Z,1.61
2018-03-02T02:44:50.480Z,1.54
2018-03-02T02:47:19.226Z,1.91
2018-03-02T02:49:47.949Z,1.90
2018-03-02T02:52:16.910Z,1.97
2018-03-02T02:54:45.457Z,2.44
2018-03-02T02:57:14.991Z,2.53
2018-03-02T02:59:43.887Z,2.93
2018-03-02T03:02:12.607Z,3.31
2018-03-02T03:04:41.276Z,2.29
2018-03-02T03:07:10.089Z,1.10
2018-03-02T03:09:38.783Z,1.63
2018-03-02T03:12:07.352Z,2.03
2018-03-02T03:14:36.140Z,2.60
2018-03-02T03:17:04.832Z,2.86
2018-03-02T03:19:33.475Z,2.29
2018-03-02T03:22:02.401Z,2.07
2018-03-02T03:24:30.988Z,0.41
2018-03-02T03:26:59.674Z,-0.57
2018-03-02T03:29:28.568Z,0.76
2018-03-02T03:31:57.137Z,0.82
2018-03-02T03:34:25.831Z,-0.55
2018-03-02T03:36:54.936Z,-0.65
2018-03-02T03:39:23.618Z,-0.61
2018-03-02T03:41:52.258Z,-0.96
2018-03-02T03:44:21.189Z,-1.03
2018-03-02T03:46:49.822Z,-0.73
2018-03-02T03:49:19.283Z,-0.27
2018-03-02T03:51:47.970Z,0.59
2018-03-02T03:54:16.650Z,0.77
2018-03-02T03:56:46.136Z,0.64
2018-03-02T03:59:14.960Z,0.03
2018-03-02T04:01:44.426Z,0.16
2018-03-02T04:04:13.067Z,-0.30
2018-03-02T04:06:42.000Z,0.39
2018-03-02T04:09:10.630Z,-0.39
2018-03-02T04:11:40.090Z,0.22
2018-03-02T04:14:09.140Z,0.30
2018-03-02T04:16:37.870Z,0.30
2018-03-02T04:19:06.421Z,-0.18
2018-03-02T04:21:35.340Z,-1.39
2018-03-02T04:24:03.986Z,-0.89
2018-03-02T04:26:32.628Z,-0.10
2018-03-02T04:29:01.396Z,0.63
2018-03-02T04:31:30.084Z,0.41
2018-03-02T04:33:58.877Z,-0.81
2018-03-02T04:36:27.663Z,-0.15
2018-03-02T04:38:56.318Z,0.32
2018-03-02T04:41:25.035Z,0.00
2018-03-02T04:43:53.721Z,0.37
2018-03-02T04:46:22.287Z,0.81
2018-03-02T04:48:50.995Z,0.73
2018-03-02T04:51:19.668Z,1.13
2018-03-02T04:53:48.365Z,0.79
2018-03-02T04:56:16.987Z,1.05
2018-03-02T04:58:46.550Z,0.72
2018-03-02T05:01:15.200Z,-0.18
2018-03-02T05:03:43.921Z,0.22
2018-03-02T05:06:13.059Z,1.20
2018-03-02T05:08:42.522Z,1.28
2018-03-02T05:11:11.170Z,1.51
2018-03-02T05:13:39.896Z,2.17
2018-03-02T05:16:08.474Z,1.44
2018-03-02T05:18:37.167Z,0.84
2018-03-02T05:21:06.142Z,1.31
2018-03-02T05:23:34.727Z,0.81
2018-03-02T05:26:03.321Z,1.00
2018-03-02T05:28:32.130Z,1.48
2018-03-02T05:31:00.804Z,1.37
2018-03-02T05:33:29.450Z,1.62
2018-03-02T05:35:58.221Z,1.68
2018-03-02T05:38:27.674Z,1.83
2018-03-02T05:40:57.102Z,1.26
2018-03-02T05:43:26.549Z,1.69
2018-03-02T05:45:55.138Z,1.30
2018-03-02T05:48:24.529Z,1.00
2018-03-02T05:50:53.476Z,1.35
2018-03-02T05:53:22.931Z,0.76
2018-03-02T05:55:51.562Z,1.31
2018-03-02T05:58:21.122Z,1.52
2018-03-02T06:00:49.781Z,2.50
2018-03-02T06:03:18.487Z,2.00
2018-03-02T06:05:47.231Z,1.81
2018-03-02T06:08:15.964Z,1.33
2018-03-02T06:10:44.652Z,2.25
2018-03-02T06:13:13.311Z,2.57
2018-03-02T06:15:42.022Z,2.30
2018-03-02T06:18:10.670Z,1.89
2018-03-02T06:20:39.700Z,2.46
2018-03-02T06:23:08.358Z,2.78
2018-03-02T06:25:37.072Z,3.58
2018-03-02T06:28:05.877Z,3.67
2018-03-02T06:30:34.425Z,3.45
2018-03-02T06:33:02.977Z,3.45
2018-03-02T06:35:32.481Z,4.13
2018-03-02T06:38:01.797Z,5.12
2018-03-02T06:40:30.343Z,4.87
2018-03-02T06:42:59.046Z,5.41
2018-03-02T06:45:28.511Z,5.42
2018-03-02T06:47:57.155Z,5.72
2018-03-02T06:50:25.980Z,5.83
2018-03-02T06:52:54.668Z,6.33
2018-03-02T06:55:23.339Z,5.72
2018-03-02T06:57:52.105Z,5.90
2018-03-02T07:00:20.824Z,6.23
2018-03-02T07:02:49.510Z,6.16
2018-03-02T07:05:18.201Z,5.96
2018-03-02T07:07:46.883Z,5.72
2018-03-02T07:10:15.469Z,5.37
2018-03-02T07:12:44.255Z,5.38
2018-03-02T07:15:12.948Z,5.12
2018-03-02T07:17:41.626Z,4.55
2018-03-02T07:20:10.358Z,3.89
2018-03-02T07:22:39.821Z,4.69
2018-03-02T07:25:08.447Z,6.30
2018-03-02T07:27:38.016Z,6.90
2018-03-02T07:30:06.700Z,5.79
2018-03-02T07:32:35.321Z,5.83
2018-03-02T07:35:05.805Z,5.62
2018-03-02T07:37:34.468Z,4.89
2018-03-02T07:40:03.178Z,5.19
2018-03-02T07:42:31.865Z,4.91
2018-03-02T07:45:00.549Z,5.66
2018-03-02T07:47:29.180Z,5.57
2018-03-02T07:49:58.842Z,5.58
2018-03-02T07:52:27.491Z,5.33
2018-03-02T07:54:56.214Z,4.16
2018-03-02T07:57:25.010Z,4.79
2018-03-02T07:59:53.696Z,4.43
2018-03-02T08:02:22.334Z,4.00
2018-03-02T08:04:51.951Z,3.93
2018-03-02T08:07:21.506Z,5.03
2018-03-02T08:09:50.282Z,3.95
2018-03-02T08:12:19.070Z,4.48
2018-03-02T08:14:47.756Z,5.89
2018-03-02T08:17:16.439Z,5.74
2018-03-02T08:19:45.223Z,5.87
2018-03-02T08:22:13.878Z,5.87
2018-03-02T08:24:42.595Z,4.55
2018-03-02T08:27:11.682Z,6.62
2018-03-02T08:29:40.383Z,7.08
2018-03-02T08:32:08.930Z,7.35
2018-03-02T08:34:37.916Z,6.65
2018-03-02T08:37:06.617Z,7.42
2018-03-02T08:39:35.324Z,7.97
2018-03-02T08:42:04.469Z,7.91
2018-03-02T08:44:33.925Z,7.48
2018-03-02T08:47:02.721Z,7.56
2018-03-02T08:49:31.396Z,8.35
2018-03-02T08:52:00.092Z,9.52
2018-03-02T08:54:28.878Z,9.59
2018-03-02T08:56:57.662Z,9.14
2018-03-02T08:59:26.253Z,8.98
2018-03-02T09:01:54.836Z,8.78
2018-03-02T09:04:23.903Z,7.57
2018-03-02T09:06:52.614Z,6.94
2018-03-02T09:09:21.239Z,8.20
2018-03-02T09:11:50.861Z,8.60
2018-03-02T09:14:19.594Z,10.26
2018-03-02T09:16:48.168Z,10.10
2018-03-02T09:19:16.909Z,8.96
2018-03-02T09:21:46.363Z,7.82
2018-03-02T09:24:14.938Z,9.75
2018-03-02T09:26:43.944Z,8.82
2018-03-02T09:29:12.530Z,9.97
2018-03-02T09:31:41.222Z,8.89
2018-03-02T09:34:10.002Z,9.00
2018-03-02T09:36:38.687Z,10.16
2018-03-02T09:39:07.327Z,8.97
2018-03-02T09:41:36.060Z,9.31
2018-03-02T09:44:04.744Z,9.58
2018-03-02T09:46:33.431Z,10.22
2018-03-02T09:49:02.215Z,9.25
2018-03-02T09:51:30.865Z,10.57
2018-03-02T09:53:59.598Z,9.89
2018-03-02T09:56:28.724Z,8.06
2018-03-02T09:58:58.191Z,8.82
2018-03-02T10:01:26.838Z,9.91
2018-03-02T10:03:55.599Z,10.63
2018-03-02T10:06:25.068Z,10.10
2018-03-02T10:08:53.632Z,8.22
2018-03-02T10:11:22.439Z,8.86
2018-03-02T10:13:51.224Z,8.03
2018-03-02T10:16:19.910Z,7.94
2018-03-02T10:18:48.859Z,9.04
2018-03-02T10:21:17.588Z,8.25
2018-03-02T10:23:46.276Z,10.26
2018-03-02T10:26:15.260Z,10.34
2018-03-02T10:28:43.927Z,10.79
2018-03-02T10:31:13.431Z,10.15
2018-03-02T10:33:42.324Z,10.02
2018-03-02T10:36:11.012Z,10.57
2018-03-02T10:38:39.650Z,9.64
2018-03-02T10:41:08.383Z,10.18
2018-03-02T10:43:37.068Z,10.33
2018-03-02T10:46:05.754Z,10.18
2018-03-02T10:48:34.697Z,9.82
2018-03-02T10:51:04.148Z,9.50
2018-03-02T10:53:32.732Z,10.34
2018-03-02T10:56:01.826Z,11.05
2018-03-02T10:58:30.468Z,10.40
2018-03-02T11:00:59.201Z,9.43
2018-03-02T11:03:36.403Z,10.50
2018-03-02T11:06:05.793Z,9.40
2018-03-02T11:08:34.470Z,9.90
2018-03-02T11:11:03.256Z,10.43
2018-03-02T11:13:31.952Z,8.88
2018-03-02T11:16:01.451Z,9.12
2018-03-02T11:18:30.344Z,9.32
2018-03-02T11:20:58.920Z,9.11
2018-03-02T11:23:27.617Z,8.70
2018-03-02T11:25:56.512Z,8.55
2018-03-02T11:28:25.233Z,9.02
2018-03-02T11:30:53.876Z,10.59
2018-03-02T11:33:22.912Z,10.19
2018-03-02T11:35:51.558Z,9.16
2018-03-02T11:38:20.283Z,9.89
2018-03-02T11:40:49.178Z,8.96
2018-03-02T11:43:17.863Z,10.17
2018-03-02T11:45:46.503Z,10.17
2018-03-02T11:48:15.625Z,9.62
2018-03-02T11:50:44.336Z,9.49
2018-03-02T11:53:13.122Z,10.12
2018-03-02T11:55:41.908Z,10.17
2018-03-02T11:58:10.593Z,9.91
2018-03-02T12:00:39.260Z,8.75
2018-03-02T12:03:08.253Z,9.24
2018-03-02T12:05:36.958Z,10.50
2018-03-02T12:08:05.533Z,9.08
2018-03-02T12:10:34.455Z,9.11
2018-03-02T12:13:03.228Z,9.92
2018-03-02T12:15:31.909Z,9.96
2018-03-02T12:18:00.793Z,9.55
2018-03-02T12:20:29.426Z,10.44
2018-03-02T12:22:58.889Z,8.73
2018-03-02T12:25:27.612Z,8.54
2018-03-02T12:27:57.072Z,10.06
2018-03-02T12:30:25.724Z,9.91
2018-03-02T12:32:54.751Z,10.48
2018-03-02T12:35:23.337Z,9.95
2018-03-02T12:37:51.884Z,10.76
2018-03-02T12:40:20.770Z,10.40
2018-03-02T12:42:49.494Z,10.13
2018-03-02T12:45:18.129Z,8.58
2018-03-02T12:47:47.693Z,8.94
2018-03-02T12:50:16.389Z,9.36
2018-03-02T12:52:45.033Z,9.28
2018-03-02T12:55:13.808Z,9.25
2018-03-02T12:57:42.531Z,11.12
2018-03-02T13:00:11.326Z,12.52
2018-03-02T13:02:40.054Z,12.33
2018-03-02T13:05:09.373Z,10.67
2018-03-02T13:07:38.065Z,10.21
2018-03-02T13:10:06.832Z,11.38
2018-03-02T13:12:36.292Z,12.17
2018-03-02T13:15:04.916Z,10.69
2018-03-02T13:17:34.386Z,10.67
2018-03-02T13:20:03.131Z,9.59
2018-03-02T13:22:43.373Z,9.29
2018-03-02T13:25:12.835Z,9.16
2018-03-02T13:27:59.256Z,9.63
2018-03-02T13:30:29.449Z,9.05
2018-03-02T13:36:05.014Z,9.41
2018-03-02T13:38:34.622Z,8.58
2018-03-02T13:41:21.142Z,9.80
2018-03-02T13:43:50.088Z,9.70
2018-03-02T13:46:18.881Z,9.43
2018-03-02T13:49:06.223Z,9.13
2018-03-02T13:51:35.675Z,9.29
2018-03-02T13:54:04.311Z,10.07
2018-03-02T13:56:51.756Z,8.45
2018-03-02T13:59:20.472Z,8.28
2018-03-02T14:01:49.111Z,8.08
2018-03-02T14:04:35.400Z,7.82
2018-03-02T14:07:04.864Z,8.07
2018-03-02T14:09:33.450Z,7.52
2018-03-02T14:12:02.124Z,7.64
2018-03-02T14:14:30.921Z,7.73
2018-03-02T14:16:59.486Z,7.85
2018-03-02T14:19:28.392Z,7.82
2018-03-02T14:21:57.078Z,8.58
2018-03-02T14:24:25.764Z,8.33
2018-03-02T14:26:55.638Z,8.69
2018-03-02T14:29:24.363Z,8.45
2018-03-02T14:31:53.053Z,9.32
2018-03-02T14:34:21.734Z,8.95
2018-03-02T14:36:50.420Z,8.58
2018-03-02T14:39:19.009Z,7.33
2018-03-02T14:41:47.692Z,8.13
2018-03-02T14:44:16.380Z,8.14
2018-03-02T14:46:45.030Z,8.24
2018-03-02T14:49:14.121Z,7.20
2018-03-02T14:51:42.844Z,7.73
2018-03-02T14:54:11.580Z,7.97
2018-03-02T14:56:41.236Z,7.44
2018-03-02T14:59:09.932Z,8.30
2018-03-02T15:01:38.629Z,8.18
2018-03-02T15:04:07.597Z,6.92
2018-03-02T15:06:36.144Z,7.96
2018-03-02T15:09:04.981Z,7.74
2018-03-02T15:11:33.866Z,7.71
2018-03-02T15:14:02.453Z,6.97
2018-03-02T15:16:31.967Z,8.02
2018-03-02T15:19:01.533Z,7.80
2018-03-02T15:21:30.229Z,7.21
2018-03-02T15:23:58.789Z,7.14
2018-03-02T15:26:27.535Z,7.21
2018-03-02T15:28:56.875Z,7.47
2018-03-02T15:31:25.675Z,7.80
2018-03-02T15:33:54.442Z,6.82
2018-03-02T15:36:23.154Z,8.01
2018-03-02T15:38:51.830Z,8.28
2018-03-02T15:41:20.616Z,7.59
2018-03-02T15:43:49.317Z,7.88
2018-03-02T15:46:18.004Z,8.39
2018-03-02T15:48:46.789Z,7.97
2018-03-02T15:51:15.361Z,8.20
2018-03-02T15:53:44.062Z,8.64
2018-03-02T15:56:12.743Z,8.53
2018-03-02T15:58:41.424Z,8.27
2018-03-02T16:01:10.084Z,8.15
2018-03-02T16:03:39.001Z,7.62
2018-03-02T16:06:07.649Z,7.29
2018-03-02T16:08:36.374Z,8.33
2018-03-02T16:11:05.538Z,7.34
2018-03-02T16:13:34.147Z,7.17
2018-03-02T16:16:02.848Z,7.37
2018-03-02T16:18:31.690Z,7.51
2018-03-02T16:21:00.427Z,7.58
2018-03-02T16:23:29.214Z,8.27
2018-03-02T16:25:58.264Z,7.94
2018-03-02T16:28:26.993Z,8.54
2018-03-02T16:30:55.677Z,8.37
2018-03-02T16:33:24.416Z,8.35
2018-03-02T16:35:53.111Z,7.83
2018-03-02T16:38:21.832Z,7.77
2018-03-02T16:40:50.522Z,7.61
2018-03-02T16:43:19.314Z,7.93
2018-03-02T16:45:48.004Z,8.17
2018-03-02T16:48:16.850Z,7.80
2018-03-02T16:50:45.570Z,7.31
2018-03-02T16:53:14.236Z,7.17
2018-03-02T16:55:43.003Z,7.14
2018-03-02T16:58:12.340Z,7.76
2018-03-02T17:00:41.037Z,7.83
2018-03-02T17:03:09.704Z,7.85
2018-03-02T17:05:38.448Z,7.61
2018-03-02T17:08:07.907Z,7.59
2018-03-02T17:10:37.557Z,8.27
2018-03-02T17:13:07.023Z,8.10
2018-03-02T17:15:35.671Z,8.41
2018-03-02T17:18:04.493Z,8.13
2018-03-02T17:20:33.042Z,7.29
2018-03-02T17:23:01.724Z,7.59
2018-03-02T17:25:30.719Z,7.59
2018-03-02T17:27:59.349Z,7.59
2018-03-02T17:30:28.003Z,8.32
2018-03-02T17:32:56.818Z,7.59
2018-03-02T17:35:25.516Z,7.66
2018-03-02T17:37:54.190Z,6.96
2018-03-02T17:40:23.149Z,7.38
2018-03-02T17:42:51.868Z,7.15
2018-03-02T17:45:20.533Z,7.46
2018-03-02T17:47:49.754Z,7.32
2018-03-02T17:50:18.494Z,7.86
2018-03-02T17:52:47.226Z,7.36
2018-03-02T17:55:16.219Z,7.33
2018-03-02T17:57:44.805Z,7.38
2018-03-02T18:00:13.486Z,6.77
2018-03-02T18:02:42.312Z,7.38
2018-03-02T18:05:11.787Z,7.41
2018-03-02T18:07:41.065Z,7.18
2018-03-02T18:10:09.871Z,7.53
2018-03-02T18:12:38.556Z,7.26
2018-03-02T18:15:07.221Z,7.38
2018-03-02T18:17:35.989Z,7.72
2018-03-02T18:20:04.710Z,7.72
2018-03-02T18:22:33.397Z,7.14
2018-03-02T18:25:02.086Z,7.30
2018-03-02T18:27:30.770Z,7.25
2018-03-02T18:29:59.406Z,7.06
2018-03-02T18:32:29.063Z,7.61
2018-03-02T18:34:57.750Z,7.55
2018-03-02T18:37:26.325Z,7.50
2018-03-02T18:39:55.329Z,7.12
2018-03-02T18:42:24.015Z,7.69
2018-03-02T18:44:52.659Z,7.25
2018-03-02T18:47:21.485Z,7.50
2018-03-02T18:49:50.171Z,7.37
2018-03-02T18:52:18.812Z,7.82
2018-03-02T18:54:47.446Z,6.97
2018-03-02T18:57:16.098Z,7.21
2018-03-02T18:59:45.066Z,7.62
2018-03-02T19:02:14.632Z,7.41
2018-03-02T19:04:43.431Z,7.38
2018-03-02T19:07:12.200Z,7.50
2018-03-02T19:09:41.160Z,7.19
2018-03-02T19:12:09.880Z,7.43
2018-03-02T19:14:38.547Z,7.49
2018-03-02T19:17:07.558Z,7.24
2018-03-02T19:19:36.207Z,7.02
2018-03-02T19:22:04.830Z,7.02
2018-03-02T19:24:33.438Z,7.13
2018-03-02T19:27:02.203Z,6.90
2018-03-02T19:29:30.853Z,7.07
2018-03-02T19:31:59.620Z,7.69
2018-03-02T19:34:29.084Z,7.92
2018-03-02T19:36:58.583Z,7.38
2018-03-02T19:39:27.387Z,7.40
2018-03-02T19:41:56.067Z,7.86
2018-03-02T19:44:24.847Z,8.09
2018-03-02T19:46:53.939Z,8.25
2018-03-02T19:49:22.991Z,8.37
2018-03-02T19:51:52.537Z,8.11
2018-03-02T19:54:21.328Z,8.29
2018-03-02T19:56:50.019Z,7.83
2018-03-02T19:59:18.636Z,8.00
2018-03-02T20:01:48.159Z,6.90
2018-03-02T20:04:16.889Z,7.37
2018-03-02T20:06:45.519Z,7.72
2018-03-02T20:09:15.036Z,7.97
2018-03-02T20:11:43.769Z,7.60
2018-03-02T20:14:12.522Z,7.70
2018-03-02T20:16:41.240Z,7.52
2018-03-02T20:19:09.829Z,7.55
2018-03-02T20:21:38.476Z,7.66
2018-03-02T20:24:07.243Z,7.18
2018-03-02T20:26:36.705Z,7.08
2018-03-02T20:29:05.491Z,6.69
2018-03-02T20:31:34.221Z,6.22
2018-03-02T20:34:03.685Z,7.48
2018-03-02T20:36:32.304Z,7.67
2018-03-02T20:39:01.869Z,7.18
2018-03-02T20:41:30.554Z,7.37
2018-03-02T20:43:59.185Z,6.65
2018-03-02T20:46:28.749Z,6.96
2018-03-02T20:48:57.433Z,7.13
2018-03-02T20:51:26.008Z,6.57
2018-03-02T20:53:54.905Z,7.07
2018-03-02T20:56:23.593Z,6.74
2018-03-02T20:58:52.275Z,7.03
2018-03-02T21:01:21.138Z,6.44
2018-03-02T21:03:49.862Z,6.89
2018-03-02T21:06:18.540Z,6.76
2018-03-02T21:08:47.226Z,6.97
2018-03-02T21:11:16.734Z,6.78
2018-03-02T21:13:45.297Z,6.43
2018-03-02T21:16:14.015Z,6.38
2018-03-02T21:18:44.218Z,7.26
2018-03-02T21:21:12.797Z,6.86
2018-03-02T21:23:41.591Z,6.65
2018-03-02T21:26:10.276Z,6.30
2018-03-02T21:28:39.025Z,6.57
2018-03-02T21:31:08.122Z,6.88
2018-03-02T21:33:36.849Z,6.98
2018-03-02T21:36:05.534Z,7.16
2018-03-02T21:38:34.221Z,6.97
2018-03-02T21:41:02.808Z,6.06
2018-03-02T21:43:31.456Z,6.31
2018-03-02T21:46:00.177Z,6.39
2018-03-02T21:48:28.818Z,6.48
2018-03-02T21:50:57.549Z,6.20
2018-03-02T21:53:26.334Z,5.64
2018-03-02T21:55:55.020Z,6.58
2018-03-02T21:58:23.652Z,6.85
2018-03-02T22:00:53.360Z,6.86
2018-03-02T22:03:22.777Z,5.53
2018-03-02T22:05:51.506Z,6.75
2018-03-02T22:08:20.604Z,6.46
2018-03-02T22:10:49.150Z,6.03
2018-03-02T22:13:17.871Z,6.26
2018-03-02T22:15:46.656Z,6.67
2018-03-02T22:18:15.308Z,6.17
2018-03-02T22:20:44.027Z,6.00
2018-03-02T22:23:12.769Z,5.56
2018-03-02T22:25:41.462Z,5.68
2018-03-02T22:28:10.183Z,5.24
2018-03-02T22:30:38.872Z,5.11
2018-03-02T22:33:08.344Z,5.73
2018-03-02T22:35:36.978Z,5.61
2018-03-02T22:38:06.339Z,5.91
2018-03-02T22:40:35.011Z,4.91
2018-03-02T22:43:03.700Z,4.96
2018-03-02T22:45:32.428Z,5.27
2018-03-02T22:48:01.884Z,6.04
2018-03-02T22:50:30.537Z,5.65
2018-03-02T22:52:59.262Z,5.25
2018-03-02T22:55:27.899Z,5.65
2018-03-02T22:57:56.627Z,5.95
2018-03-02T23:00:25.344Z,4.77
2018-03-02T23:02:54.047Z,5.41
2018-03-02T23:05:23.409Z,5.24
2018-03-02T23:07:52.291Z,5.01
2018-03-02T23:10:20.933Z,4.95
2018-03-02T23:12:49.667Z,5.38
2018-03-02T23:15:18.662Z,5.43
2018-03-02T23:17:47.451Z,6.15
2018-03-02T23:20:16.136Z,6.33
2018-03-02T23:22:45.020Z,5.54
2018-03-02T23:25:13.705Z,4.91
2018-03-02T23:27:42.354Z,5.27
2018-03-02T23:30:11.077Z,5.73
2018-03-02T23:32:39.714Z,5.35
2018-03-02T23:35:09.029Z,6.21
2018-03-02T23:37:37.899Z,6.40
2018-03-02T23:40:07.413Z,4.80
2018-03-02T23:42:36.865Z,4.86
2018-03-02T23:45:05.650Z,5.34
2018-03-02T23:47:34.334Z,5.35
2018-03-02T23:50:02.986Z,6.10
2018-03-02T23:52:31.751Z,6.17
2018-03-02T23:55:01.277Z,5.32
2018-03-02T23:57:29.998Z,5.49
2018-03-02T23:59:59.202Z,6.30
